createdAt,value
2023-01-25T00:00:16.945Z,0.80
2023-01-25T00:02:53.940Z,0.80
2023-01-25T00:05:21.831Z,0.80
2023-01-25T00:07:49.706Z,0.80
2023-01-25T00:10:17.710Z,0.90
2023-01-25T00:12:45.553Z,0.80
2023-01-25T00:15:14.814Z,0.80
2023-01-25T00:17:42.651Z,0.80
2023-01-25T00:20:11.721Z,0.70
2023-01-25T00:22:39.574Z,0.80
2023-01-25T00:25:08.223Z,0.80
2023-01-25T00:27:36.198Z,0.80
2023-01-25T00:30:04.359Z,0.80
2023-01-25T00:32:55.147Z,0.80
2023-01-25T00:35:23.289Z,0.70
2023-01-25T00:37:54.019Z,0.80
2023-01-25T00:40:21.862Z,0.80
2023-01-25T00:42:49.720Z,0.80
2023-01-25T00:45:17.599Z,0.80
2023-01-25T00:47:46.791Z,0.80
2023-01-25T00:50:14.599Z,0.80
2023-01-25T00:52:42.430Z,0.80
2023-01-25T00:55:10.963Z,0.80
2023-01-25T00:57:38.834Z,0.80
2023-01-25T01:00:08.069Z,0.80
2023-01-25T01:02:35.929Z,0.80
2023-01-25T01:05:05.729Z,0.80
2023-01-25T01:07:33.767Z,0.80
2023-01-25T01:10:01.683Z,0.80
2023-01-25T01:12:29.506Z,0.80
2023-01-25T01:14:57.617Z,0.80
2023-01-25T01:17:25.487Z,0.70
2023-01-25T01:19:53.299Z,0.70
2023-01-25T01:22:22.494Z,0.70
2023-01-25T01:24:50.327Z,0.70
2023-01-25T01:27:18.587Z,0.70
2023-01-25T01:29:46.745Z,0.70
2023-01-25T01:32:14.652Z,0.80
2023-01-25T01:34:44.411Z,0.80
2023-01-25T01:37:12.329Z,0.80
2023-01-25T01:39:41.544Z,0.80
2023-01-25T01:42:09.363Z,0.80
2023-01-25T01:44:48.878Z,0.80
2023-01-25T01:47:21.514Z,0.80
2023-01-25T01:49:54.116Z,0.80
2023-01-25T01:52:25.760Z,0.80
2023-01-25T01:55:00.092Z,0.80
2023-01-25T01:57:31.599Z,0.80
2023-01-25T02:00:03.735Z,0.80
2023-01-25T02:02:31.604Z,0.80
2023-01-25T02:05:02.245Z,0.80
2023-01-25T02:07:35.009Z,0.80
2023-01-25T02:10:07.296Z,0.80
2023-01-25T02:12:36.672Z,0.70
2023-01-25T02:15:05.532Z,0.70
2023-01-25T02:17:35.433Z,0.70
2023-01-25T02:20:10.403Z,0.60
2023-01-25T02:22:45.533Z,0.60
2023-01-25T02:25:15.652Z,0.60
2023-01-25T02:27:49.446Z,0.60
2023-01-25T02:30:17.657Z,0.50
2023-01-25T02:32:45.497Z,0.50
2023-01-25T02:35:20.883Z,0.50
2023-01-25T02:37:49.272Z,0.50
2023-01-25T02:40:19.043Z,0.50
2023-01-25T02:42:47.429Z,0.60
2023-01-25T02:45:18.962Z,0.60
2023-01-25T02:47:48.587Z,0.60
2023-01-25T02:50:16.960Z,0.60
2023-01-25T02:52:44.788Z,0.60
2023-01-25T02:55:12.642Z,0.60
2023-01-25T02:57:41.891Z,0.60
2023-01-25T03:00:10.897Z,0.60
2023-01-25T03:02:38.904Z,0.60
2023-01-25T03:05:07.643Z,0.70
2023-01-25T03:07:35.606Z,0.60
2023-01-25T03:10:03.447Z,0.60
2023-01-25T03:12:31.268Z,0.60
2023-01-25T03:15:00.496Z,0.60
2023-01-25T03:17:28.344Z,0.60
2023-01-25T03:19:56.167Z,0.60
2023-01-25T03:22:24.028Z,0.60
2023-01-25T03:24:51.993Z,0.50
2023-01-25T03:27:19.814Z,0.50
2023-01-25T03:29:47.671Z,0.60
2023-01-25T03:32:16.893Z,0.60
2023-01-25T03:34:45.073Z,0.60
2023-01-25T03:37:12.853Z,0.60
2023-01-25T03:39:40.719Z,0.60
2023-01-25T03:42:08.749Z,0.50
2023-01-25T03:44:37.195Z,0.60
2023-01-25T03:47:05.083Z,0.60
2023-01-25T03:49:34.273Z,0.50
2023-01-25T03:52:02.077Z,0.50
2023-01-25T03:54:30.206Z,0.50
2023-01-25T03:56:58.039Z,0.50
2023-01-25T03:59:26.182Z,0.50
2023-01-25T04:01:54.163Z,0.50
2023-01-25T04:04:22.197Z,0.50
2023-01-25T04:06:51.892Z,0.50
2023-01-25T04:09:19.829Z,0.50
2023-01-25T04:11:50.980Z,0.50
2023-01-25T04:14:28.390Z,0.50
2023-01-25T04:17:05.291Z,0.50
2023-01-25T04:19:33.138Z,0.50
2023-01-25T04:22:02.463Z,0.50
2023-01-25T04:24:30.327Z,0.50
2023-01-25T04:26:58.156Z,0.50
2023-01-25T04:29:39.189Z,0.50
2023-01-25T04:32:08.336Z,0.50
2023-01-25T04:34:36.789Z,0.50
2023-01-25T04:37:05.979Z,0.50
2023-01-25T04:39:33.812Z,0.40
2023-01-25T04:42:01.648Z,0.40
2023-01-25T04:44:29.469Z,0.40
2023-01-25T04:46:57.275Z,0.40
2023-01-25T04:49:25.122Z,0.40
2023-01-25T04:51:52.933Z,0.40
2023-01-25T04:54:22.109Z,0.40
2023-01-25T04:56:49.910Z,0.40
2023-01-25T04:59:17.724Z,0.40
2023-01-25T05:01:45.522Z,0.40
2023-01-25T05:04:13.337Z,0.40
2023-01-25T05:06:41.149Z,0.40
2023-01-25T05:09:10.127Z,0.50
2023-01-25T05:11:39.372Z,0.50
2023-01-25T05:14:07.235Z,0.50
2023-01-25T05:16:35.189Z,0.50
2023-01-25T05:19:03.232Z,0.50
2023-01-25T05:21:48.467Z,0.40
2023-01-25T05:24:16.422Z,0.50
2023-01-25T05:27:03.161Z,0.50
2023-01-25T05:29:32.187Z,0.50
2023-01-25T05:32:00.557Z,0.40
2023-01-25T05:34:28.420Z,0.50
2023-01-25T05:36:56.265Z,0.50
2023-01-25T05:39:24.137Z,0.50
2023-01-25T05:41:53.342Z,0.50
2023-01-25T05:44:21.227Z,0.50
2023-01-25T05:46:49.147Z,0.40
2023-01-25T05:49:17.617Z,0.40
2023-01-25T05:51:46.045Z,0.40
2023-01-25T05:54:15.586Z,0.40
2023-01-25T05:56:43.796Z,0.40
2023-01-25T05:59:13.714Z,0.40
2023-01-25T06:01:41.552Z,0.40
2023-01-25T06:04:09.348Z,0.40
2023-01-25T06:06:37.187Z,0.40
2023-01-25T06:09:05.046Z,0.40
2023-01-25T06:11:32.863Z,0.40
2023-01-25T06:14:00.676Z,0.40
2023-01-25T06:16:29.852Z,0.40
2023-01-25T06:18:57.703Z,0.40
2023-01-25T06:21:25.483Z,0.40
2023-01-25T06:23:53.367Z,0.40
2023-01-25T06:26:21.214Z,0.40
2023-01-25T06:28:49.037Z,0.40
2023-01-25T06:31:18.523Z,0.40
2023-01-25T06:33:51.450Z,0.40
2023-01-25T06:36:21.347Z,0.40
2023-01-25T06:38:50.511Z,0.40
2023-01-25T06:41:18.757Z,0.30
2023-01-25T06:43:47.739Z,0.30
2023-01-25T06:46:15.651Z,0.30
2023-01-25T06:48:43.663Z,0.30
2023-01-25T06:51:15.278Z,0.30
2023-01-25T06:53:44.473Z,0.30
2023-01-25T06:56:14.171Z,0.30
2023-01-25T06:58:42.498Z,0.30
2023-01-25T07:01:15.005Z,0.30
2023-01-25T07:03:43.015Z,0.40
2023-01-25T07:06:12.597Z,0.40
2023-01-25T07:08:40.537Z,0.40
2023-01-25T07:11:13.572Z,0.40
2023-01-25T07:13:42.988Z,0.40
2023-01-25T07:16:14.105Z,0.40
2023-01-25T07:18:42.460Z,0.40
2023-01-25T07:21:13.542Z,0.30
2023-01-25T07:23:41.839Z,0.30
2023-01-25T07:26:17.461Z,0.40
2023-01-25T07:28:46.158Z,0.40
2023-01-25T07:31:14.501Z,0.30
2023-01-25T07:33:42.938Z,0.40
2023-01-25T07:36:13.771Z,0.30
2023-01-25T07:38:41.621Z,0.40
2023-01-25T07:41:09.415Z,0.30
2023-01-25T07:43:37.410Z,0.40
2023-01-25T07:46:11.174Z,0.40
2023-01-25T07:48:40.131Z,0.40
2023-01-25T07:51:22.500Z,0.30
2023-01-25T07:53:54.036Z,0.30
2023-01-25T07:56:23.243Z,0.30
2023-01-25T07:58:52.795Z,0.30
2023-01-25T08:01:21.953Z,0.30
2023-01-25T08:03:50.923Z,0.30
2023-01-25T08:06:27.517Z,0.30
2023-01-25T08:08:57.442Z,0.30
2023-01-25T08:11:27.397Z,0.30
2023-01-25T08:13:55.404Z,0.30
2023-01-25T08:16:25.143Z,0.20
2023-01-25T08:18:54.876Z,0.20
2023-01-25T08:21:24.167Z,0.20
2023-01-25T08:23:52.492Z,0.20
2023-01-25T08:26:22.012Z,0.20
2023-01-25T08:28:50.028Z,0.20
2023-01-25T08:31:20.159Z,0.20
2023-01-25T08:33:48.408Z,0.20
2023-01-25T08:36:18.315Z,0.20
2023-01-25T08:38:46.747Z,0.20
2023-01-25T08:41:18.321Z,0.20
2023-01-25T08:43:48.517Z,0.30
2023-01-25T08:46:17.392Z,0.30
2023-01-25T08:48:45.254Z,0.30
2023-01-25T08:51:14.727Z,0.30
2023-01-25T08:53:42.890Z,0.30
2023-01-25T08:56:12.118Z,0.30
2023-01-25T08:58:41.596Z,0.30
2023-01-25T09:01:12.926Z,0.30
2023-01-25T09:03:43.351Z,0.30
2023-01-25T09:06:11.923Z,0.40
2023-01-25T09:08:40.077Z,0.40
2023-01-25T09:11:10.034Z,0.30
2023-01-25T09:13:38.073Z,0.30
2023-01-25T09:16:08.322Z,0.40
2023-01-25T09:18:39.181Z,0.40
2023-01-25T09:21:08.196Z,0.30
2023-01-25T09:23:44.407Z,0.30
2023-01-25T09:26:20.032Z,0.40
2023-01-25T09:28:49.158Z,0.40
2023-01-25T09:31:22.045Z,0.30
2023-01-25T09:33:52.948Z,0.30
2023-01-25T09:36:21.081Z,0.30
2023-01-25T09:38:49.359Z,0.30
2023-01-25T09:41:36.720Z,0.30
2023-01-25T09:44:16.851Z,0.30
2023-01-25T09:46:49.417Z,0.30
2023-01-25T09:49:52.073Z,0.30
2023-01-25T09:52:34.807Z,0.30
2023-01-25T09:55:03.553Z,0.30
2023-01-25T09:57:36.143Z,0.30
2023-01-25T10:00:14.567Z,0.40
2023-01-25T10:02:47.399Z,0.40
2023-01-25T10:05:19.963Z,0.40
2023-01-25T10:08:02.855Z,0.30
2023-01-25T10:10:36.455Z,0.30
2023-01-25T10:13:04.552Z,0.40
2023-01-25T10:15:36.909Z,0.30
2023-01-25T10:18:12.533Z,0.30
2023-01-25T10:20:46.397Z,0.40
2023-01-25T10:23:41.349Z,0.30
2023-01-25T10:26:16.434Z,0.40
2023-01-25T10:28:53.635Z,0.40
2023-01-25T10:31:25.789Z,0.40
2023-01-25T10:33:55.120Z,0.40
2023-01-25T10:36:30.559Z,0.40
2023-01-25T10:39:00.799Z,0.40
2023-01-25T10:41:35.819Z,0.40
2023-01-25T10:44:21.628Z,0.50
2023-01-25T10:46:52.960Z,0.50
2023-01-25T10:49:25.863Z,0.50
2023-01-25T10:51:55.367Z,0.50
2023-01-25T10:54:24.423Z,0.40
2023-01-25T10:56:53.372Z,0.50
2023-01-25T10:59:25.663Z,0.40
2023-01-25T11:01:53.533Z,0.50
2023-01-25T11:04:31.231Z,0.50
2023-01-25T11:07:02.536Z,0.50
2023-01-25T11:09:36.007Z,0.40
2023-01-25T11:12:05.693Z,0.50
2023-01-25T11:14:34.383Z,0.50
2023-01-25T11:17:05.589Z,0.50
2023-01-25T11:19:35.944Z,0.60
2023-01-25T11:22:07.669Z,0.60
2023-01-25T11:24:37.010Z,0.60
2023-01-25T11:27:18.470Z,0.60
2023-01-25T11:29:47.682Z,0.60
2023-01-25T11:32:24.958Z,0.60
2023-01-25T11:34:52.934Z,0.50
2023-01-25T11:37:46.398Z,0.50
2023-01-25T11:40:22.137Z,0.50
2023-01-25T11:43:01.089Z,0.50
2023-01-25T11:46:01.599Z,0.50
2023-01-25T11:48:48.801Z,0.50
2023-01-25T11:51:24.918Z,0.50
2023-01-25T11:54:06.475Z,0.60
2023-01-25T11:56:47.717Z,0.60
2023-01-25T11:59:32.010Z,0.60
2023-01-25T12:02:15.666Z,0.60
2023-01-25T12:05:06.369Z,0.60
2023-01-25T12:07:47.656Z,0.60
2023-01-25T12:10:29.260Z,0.60
2023-01-25T12:13:03.624Z,0.60
2023-01-25T12:15:56.682Z,0.60
2023-01-25T12:18:46.621Z,0.60
2023-01-25T12:21:31.659Z,0.60
2023-01-25T12:24:17.820Z,0.60
2023-01-25T12:27:04.528Z,0.60
2023-01-25T12:29:40.000Z,0.60
2023-01-25T12:32:12.329Z,0.60
2023-01-25T12:34:43.268Z,0.60
2023-01-25T12:37:17.800Z,0.60
2023-01-25T12:39:49.967Z,0.60
2023-01-25T12:42:23.527Z,0.60
2023-01-25T12:44:56.967Z,0.60
2023-01-25T12:47:32.869Z,0.60
2023-01-25T12:50:04.387Z,0.60
2023-01-25T12:52:35.467Z,0.60
2023-01-25T12:55:05.259Z,0.50
2023-01-25T12:57:40.062Z,0.50
2023-01-25T13:00:19.611Z,0.50
2023-01-25T13:03:08.807Z,0.50
2023-01-25T13:05:42.983Z,0.50
2023-01-25T13:08:30.751Z,0.50
2023-01-25T13:11:10.384Z,0.50
2023-01-25T13:13:39.859Z,0.50
2023-01-25T13:16:35.463Z,0.50
2023-01-25T13:19:03.528Z,0.40
2023-01-25T13:21:46.074Z,0.40
2023-01-25T13:24:17.451Z,0.40
2023-01-25T13:26:58.659Z,0.50
2023-01-25T13:29:55.337Z,0.50
2023-01-25T13:32:56.635Z,0.50
2023-01-25T13:35:33.309Z,0.50
2023-01-25T13:38:05.197Z,0.50
2023-01-25T13:40:36.385Z,0.50
2023-01-25T13:43:06.969Z,0.50
2023-01-25T13:45:39.786Z,0.50
2023-01-25T13:48:16.581Z,0.50
2023-01-25T13:50:48.320Z,0.50
2023-01-25T13:53:21.955Z,0.50
2023-01-25T13:55:52.049Z,0.50
2023-01-25T13:58:21.951Z,0.50
2023-01-25T14:00:54.998Z,0.50
2023-01-25T14:03:26.596Z,0.40
2023-01-25T14:05:56.916Z,0.40
2023-01-25T14:08:26.607Z,0.50
2023-01-25T14:10:55.424Z,0.40
2023-01-25T14:13:23.260Z,0.40
2023-01-25T14:15:57.590Z,0.40
2023-01-25T14:18:31.555Z,0.40
2023-01-25T14:21:17.160Z,0.40
2023-01-25T14:23:45.591Z,0.40
2023-01-25T14:26:19.759Z,0.40
2023-01-25T14:28:59.134Z,0.40
2023-01-25T17:57:15.939Z,-0.40
2023-01-25T17:59:43.767Z,-0.40
2023-01-25T18:02:12.395Z,-0.30
2023-01-25T18:04:40.379Z,-0.30
2023-01-25T18:07:08.182Z,-0.30
2023-01-25T18:09:35.997Z,-0.30
2023-01-25T18:12:03.820Z,-0.30
2023-01-25T18:14:33.140Z,-0.30
2023-01-25T18:17:01.194Z,-0.30
2023-01-25T18:19:31.109Z,-0.20
2023-01-25T18:21:58.904Z,-0.20
2023-01-25T18:24:31.384Z,-0.20
2023-01-25T18:27:05.595Z,-0.20
2023-01-25T18:29:50.115Z,-0.20
2023-01-25T18:32:17.968Z,-0.20
2023-01-25T18:34:48.006Z,-0.20
2023-01-25T18:37:23.247Z,-0.30
2023-01-25T18:39:52.665Z,-0.30
2023-01-25T18:42:21.951Z,-0.30
2023-01-25T18:44:51.144Z,-0.20
2023-01-25T18:47:20.270Z,-0.20
2023-01-25T18:49:49.558Z,-0.20
2023-01-25T18:52:18.273Z,-0.20
2023-01-25T18:54:46.549Z,-0.20
2023-01-25T18:57:14.750Z,-0.20
2023-01-25T18:59:43.224Z,-0.20
2023-01-25T19:02:13.664Z,-0.30
2023-01-25T19:04:41.851Z,-0.20
2023-01-25T19:07:10.014Z,-0.20
2023-01-25T19:09:38.023Z,-0.20
2023-01-25T19:12:06.318Z,-0.20
2023-01-25T19:14:34.159Z,-0.20
2023-01-25T19:17:02.010Z,-0.20
2023-01-25T19:19:33.579Z,-0.20
2023-01-25T19:22:01.938Z,-0.20
2023-01-25T19:24:29.962Z,-0.20
2023-01-25T19:26:58.035Z,-0.20
2023-01-25T19:29:25.881Z,-0.20
2023-01-25T19:31:53.834Z,-0.20
2023-01-25T19:34:21.720Z,-0.20
2023-01-25T19:36:50.912Z,-0.20
2023-01-25T19:39:19.149Z,-0.20
2023-01-25T19:41:47.271Z,-0.10
2023-01-25T19:44:15.844Z,-0.20
2023-01-25T19:46:44.189Z,-0.10
2023-01-25T19:49:14.308Z,-0.10
2023-01-25T19:51:45.440Z,-0.10
2023-01-25T19:54:17.152Z,-0.10
2023-01-25T19:56:46.773Z,-0.10
2023-01-25T19:59:16.226Z,-0.10
2023-01-25T20:01:44.704Z,-0.10
2023-01-25T20:04:14.336Z,-0.10
2023-01-25T20:06:42.295Z,-0.10
2023-01-25T20:09:14.051Z,-0.10
2023-01-25T20:11:42.463Z,-0.10
2023-01-25T20:14:12.708Z,-0.10
2023-01-25T20:16:40.765Z,-0.10
2023-01-25T20:19:11.642Z,-0.10
2023-01-25T20:21:39.719Z,-0.10
2023-01-25T20:24:09.748Z,-0.10
2023-01-25T20:26:42.797Z,-0.10
2023-01-25T20:29:11.418Z,-0.10
2023-01-25T20:31:41.514Z,-0.10
2023-01-25T20:34:12.213Z,-0.10
2023-01-25T20:36:40.363Z,-0.10
2023-01-25T20:39:09.360Z,-0.10
2023-01-25T20:41:38.573Z,-0.10
2023-01-25T20:44:08.448Z,-0.10
2023-01-25T20:46:38.735Z,-0.10
2023-01-25T20:49:08.945Z,-0.10
2023-01-25T20:51:37.144Z,-0.10
2023-01-25T20:54:05.035Z,-0.10
2023-01-25T20:56:33.199Z,-0.10
2023-01-25T20:59:02.441Z,-0.10
2023-01-25T21:01:35.327Z,-0.10
2023-01-25T21:04:03.583Z,-0.10
2023-01-25T21:06:31.601Z,-0.20
2023-01-25T21:08:59.812Z,-0.20
2023-01-25T21:11:27.664Z,-0.20
2023-01-25T21:13:55.536Z,-0.20
2023-01-25T21:16:24.907Z,-0.20
2023-01-25T21:18:54.456Z,-0.20
2023-01-25T21:21:25.657Z,-0.20
2023-01-25T21:23:55.053Z,-0.20
2023-01-25T21:26:25.775Z,-0.20
2023-01-25T21:28:54.900Z,-0.30
2023-01-25T21:31:25.689Z,-0.20
2023-01-25T21:33:54.761Z,-0.20
2023-01-25T21:36:23.051Z,-0.20
2023-01-25T21:38:53.943Z,-0.20
2023-01-25T21:41:25.796Z,-0.30
2023-01-25T21:44:12.619Z,-0.30
2023-01-25T21:46:44.827Z,-0.40
2023-01-25T21:49:32.204Z,-0.40
2023-01-25T21:52:02.402Z,-0.40
2023-01-25T21:54:31.758Z,-0.40
2023-01-25T21:57:01.717Z,-0.40
2023-01-25T21:59:29.840Z,-0.40
2023-01-25T22:01:59.089Z,-0.40
2023-01-25T22:04:27.109Z,-0.40
2023-01-25T22:06:55.415Z,-0.40
2023-01-25T22:09:23.691Z,-0.40
2023-01-25T22:11:51.636Z,-0.40
2023-01-25T22:14:22.968Z,-0.40
2023-01-25T22:16:51.203Z,-0.40
2023-01-25T22:19:20.719Z,-0.40
2023-01-25T22:21:48.629Z,-0.50
2023-01-25T22:24:16.733Z,-0.50
2023-01-25T22:26:51.347Z,-0.50
2023-01-25T22:29:19.162Z,-0.50
2023-01-25T22:31:47.015Z,-0.50
2023-01-25T22:34:14.886Z,-0.50
2023-01-25T22:36:44.358Z,-0.50
2023-01-25T22:39:14.729Z,-0.50
2023-01-25T22:41:43.158Z,-0.50
2023-01-25T22:44:10.965Z,-0.50
2023-01-25T22:46:38.795Z,-0.50
2023-01-25T22:49:06.656Z,-0.50
2023-01-25T22:51:34.841Z,-0.60
2023-01-25T22:54:04.048Z,-0.70
2023-01-25T22:56:33.106Z,-0.70
2023-01-25T22:59:01.651Z,-0.70
2023-01-25T23:01:31.676Z,-0.70
2023-01-25T23:03:59.797Z,-0.70
2023-01-25T23:06:29.127Z,-0.80
2023-01-25T23:08:59.659Z,-0.80
2023-01-25T23:11:32.164Z,-0.80
2023-01-25T23:14:18.565Z,-0.80
2023-01-25T23:16:46.552Z,-0.90
2023-01-25T23:19:13.714Z,-0.90
2023-01-25T23:21:42.255Z,-0.90
2023-01-25T23:24:10.877Z,-0.90
2023-01-25T23:26:45.983Z,-0.90
2023-01-25T23:29:14.299Z,-0.90
2023-01-25T23:31:42.521Z,-0.90
2023-01-25T23:34:12.603Z,-0.90
2023-01-25T23:36:42.164Z,-0.90
2023-01-25T23:39:12.418Z,-0.90
2023-01-25T23:41:41.591Z,-0.90
2023-01-25T23:44:10.004Z,-0.80
2023-01-25T23:46:37.908Z,-0.90
2023-01-25T23:49:05.745Z,-0.90
2023-01-25T23:51:33.570Z,-0.90
2023-01-25T23:54:01.387Z,-0.90
2023-01-25T23:56:29.254Z,-1.00
2023-01-25T23:58:58.683Z,-1.00
